createdAt,value
2022-11-12T00:00:27.761Z,89.60
2022-11-12T00:03:35.237Z,89.60
2022-11-12T00:06:42.257Z,89.60
2022-11-12T00:09:49.556Z,89.60
2022-11-12T00:12:57.882Z,89.60
2022-11-12T00:16:05.860Z,89.60
2022-11-12T00:19:13.219Z,89.60
2022-11-12T00:22:20.431Z,89.60
2022-11-12T00:25:27.445Z,89.70
2022-11-12T00:28:38.199Z,89.70
2022-11-12T00:31:45.208Z,89.60
2022-11-12T00:34:52.309Z,89.60
2022-11-12T00:37:59.802Z,89.60
2022-11-12T00:41:06.925Z,89.60
2022-11-12T00:44:15.425Z,89.70
2022-11-12T00:47:22.395Z,89.70
2022-11-12T00:50:29.413Z,89.70
2022-11-12T00:53:36.746Z,89.70
2022-11-12T00:56:44.143Z,89.60
2022-11-12T00:59:52.849Z,89.70
2022-11-12T01:02:59.571Z,89.60
2022-11-12T01:06:08.036Z,89.60
2022-11-12T01:09:15.431Z,89.70
2022-11-12T01:12:22.375Z,89.60
2022-11-12T01:15:31.521Z,89.60
2022-11-12T01:18:38.781Z,89.60
2022-11-12T01:21:46.574Z,89.60
2022-11-12T01:24:53.411Z,89.60
2022-11-12T01:28:00.132Z,89.60
2022-11-12T01:31:16.950Z,89.50
2022-11-12T01:34:24.761Z,89.60
2022-11-12T01:37:31.281Z,89.60
2022-11-12T01:40:38.246Z,89.60
2022-11-12T01:43:45.237Z,89.60
2022-11-12T01:47:01.506Z,89.60
2022-11-12T01:50:17.164Z,89.60
2022-11-12T01:53:29.768Z,89.60
2022-11-12T01:56:41.797Z,89.60
2022-11-12T01:59:52.774Z,89.60
2022-11-12T02:03:03.986Z,89.60
2022-11-12T02:06:15.022Z,89.60
2022-11-12T02:09:22.165Z,89.60
2022-11-12T02:12:47.271Z,89.60
2022-11-12T02:15:54.609Z,89.60
2022-11-12T02:19:04.050Z,89.60
2022-11-12T02:22:12.338Z,89.60
2022-11-12T02:25:22.977Z,89.60
2022-11-12T02:28:31.600Z,89.60
2022-11-12T02:31:39.072Z,89.60
2022-11-12T02:34:47.523Z,89.60
2022-11-12T02:37:55.331Z,89.60
2022-11-12T02:41:02.368Z,89.60
2022-11-12T02:44:09.184Z,89.70
2022-11-12T02:47:16.275Z,89.60
2022-11-12T02:50:23.014Z,89.60
2022-11-12T02:53:32.560Z,89.60
2022-11-12T02:56:39.238Z,89.60
2022-11-12T02:59:46.041Z,89.60
2022-11-12T03:03:00.043Z,89.60
2022-11-12T03:06:08.203Z,89.60
2022-11-12T03:09:16.842Z,89.60
2022-11-12T03:12:24.015Z,89.60
2022-11-12T03:15:32.310Z,89.60
2022-11-12T03:18:39.213Z,89.60
2022-11-12T03:21:46.346Z,89.60
2022-11-12T03:24:54.479Z,89.60
2022-11-12T03:28:03.306Z,89.60
2022-11-12T03:31:12.043Z,89.60
2022-11-12T03:34:19.373Z,89.60
2022-11-12T03:37:27.511Z,89.60
2022-11-12T03:40:36.870Z,89.60
2022-11-12T03:43:43.290Z,89.60
2022-11-12T03:46:49.999Z,89.50
2022-11-12T03:49:56.682Z,89.50
2022-11-12T03:53:03.213Z,89.60
2022-11-12T03:56:11.545Z,89.60
2022-11-12T03:59:18.568Z,89.60
2022-11-12T04:02:30.122Z,89.60
2022-11-12T04:05:54.839Z,89.50
2022-11-12T04:09:01.922Z,89.50
2022-11-12T04:12:24.001Z,89.50
2022-11-12T04:15:30.757Z,89.50
2022-11-12T04:18:55.598Z,89.50
2022-11-12T04:22:05.078Z,89.50
2022-11-12T04:25:29.338Z,89.50
2022-11-12T04:28:37.901Z,89.50
2022-11-12T04:31:44.494Z,89.50
2022-11-12T04:34:51.758Z,89.50
2022-11-12T04:37:59.090Z,89.50
2022-11-12T04:41:23.126Z,89.40
2022-11-12T04:44:48.927Z,89.40
2022-11-12T04:47:55.746Z,89.50
2022-11-12T04:51:25.113Z,89.50
2022-11-12T04:54:31.909Z,89.40
2022-11-12T04:57:39.562Z,89.50
2022-11-12T05:00:47.970Z,89.40
2022-11-12T05:03:55.134Z,89.40
2022-11-12T05:07:02.700Z,89.40
2022-11-12T05:10:10.096Z,89.40
2022-11-12T05:13:17.366Z,89.40
2022-11-12T05:16:26.693Z,89.40
2022-11-12T05:19:34.716Z,89.40
2022-11-12T05:22:47.654Z,89.50
2022-11-12T05:25:57.584Z,89.40
2022-11-12T05:29:08.700Z,89.50
2022-11-12T05:32:18.522Z,89.50
2022-11-12T05:35:25.351Z,89.50
2022-11-12T05:38:32.235Z,89.60
2022-11-12T05:42:05.887Z,89.60
2022-11-12T05:45:07.020Z,89.60
2022-11-12T05:48:17.846Z,89.60
2022-11-12T05:51:28.733Z,89.60
2022-11-12T05:54:35.716Z,89.60
2022-11-12T05:57:42.671Z,89.70
2022-11-12T06:00:49.892Z,89.70
2022-11-12T06:03:58.509Z,89.70
2022-11-12T06:07:05.816Z,89.70
2022-11-12T06:10:17.475Z,89.70
2022-11-12T06:13:27.266Z,89.70
2022-11-12T06:16:34.812Z,89.70
2022-11-12T06:19:42.810Z,89.70
2022-11-12T06:22:49.870Z,89.70
2022-11-12T06:25:56.932Z,89.70
2022-11-12T06:29:04.183Z,89.70
2022-11-12T06:32:11.404Z,89.70
2022-11-12T06:35:21.415Z,89.80
2022-11-12T06:38:28.376Z,89.80
2022-11-12T06:41:35.505Z,89.80
2022-11-12T06:44:42.474Z,89.70
2022-11-12T06:47:49.572Z,89.80
2022-11-12T06:50:58.341Z,89.70
2022-11-12T06:54:05.358Z,89.70
2022-11-12T06:57:12.442Z,89.80
2022-11-12T07:00:20.018Z,89.80
2022-11-12T07:03:27.030Z,89.80
2022-11-12T07:06:35.749Z,89.80
2022-11-12T07:09:42.497Z,89.80
2022-11-12T07:12:53.321Z,89.80
2022-11-12T07:16:00.743Z,89.70
2022-11-12T07:19:07.788Z,89.80
2022-11-12T07:22:16.001Z,89.80
2022-11-12T07:25:23.541Z,89.80
2022-11-12T07:28:30.917Z,89.80
2022-11-12T07:31:37.461Z,89.70
2022-11-12T07:34:44.313Z,89.50
2022-11-12T07:37:54.709Z,89.50
2022-11-12T07:41:05.638Z,89.50
2022-11-12T07:44:12.736Z,89.50
2022-11-12T07:47:19.740Z,89.50
2022-11-12T07:50:27.025Z,89.40
2022-11-12T07:53:35.689Z,89.50
2022-11-12T07:56:42.765Z,89.40
2022-11-12T07:59:49.752Z,89.50
2022-11-12T08:03:00.186Z,89.50
2022-11-12T08:06:08.347Z,89.50
2022-11-12T08:09:16.885Z,89.50
2022-11-12T08:12:23.879Z,89.50
2022-11-12T08:15:31.082Z,89.50
2022-11-12T08:18:37.884Z,89.50
2022-11-12T08:21:45.717Z,89.50
2022-11-12T08:24:53.546Z,89.50
2022-11-12T08:28:01.197Z,89.50
2022-11-12T08:31:11.193Z,89.40
2022-11-12T08:34:22.541Z,89.50
2022-11-12T08:37:30.064Z,89.50
2022-11-12T08:40:38.952Z,89.50
2022-11-12T08:43:46.118Z,89.50
2022-11-12T08:46:52.795Z,89.50
2022-11-12T08:49:59.116Z,89.60
2022-11-12T08:53:07.635Z,89.60
2022-11-12T08:56:15.593Z,89.60
2022-11-12T08:59:22.253Z,89.60
2022-11-12T09:02:28.903Z,89.60
2022-11-12T09:05:37.121Z,89.70
2022-11-12T09:08:44.025Z,89.70
2022-11-12T09:11:52.299Z,89.70
2022-11-12T09:15:09.634Z,89.70
2022-11-12T09:18:25.703Z,89.70
2022-11-12T09:21:32.538Z,89.80
2022-11-12T09:24:39.474Z,89.80
2022-11-12T09:27:48.695Z,89.80
2022-11-12T09:30:56.289Z,89.80
2022-11-12T09:34:03.671Z,89.90
2022-11-12T09:37:10.174Z,89.90
2022-11-12T09:40:20.099Z,89.90
2022-11-12T09:43:32.945Z,89.90
2022-11-12T09:46:44.894Z,89.90
2022-11-12T09:49:59.981Z,90.00
2022-11-12T09:53:17.526Z,90.00
2022-11-12T09:56:26.099Z,90.00
2022-11-12T09:59:38.974Z,90.00
2022-11-12T10:02:53.413Z,90.00
2022-11-12T10:06:10.380Z,90.00
2022-11-12T10:09:21.455Z,90.00
2022-11-12T10:12:36.589Z,90.00
2022-11-12T10:16:17.067Z,90.00
2022-11-12T10:19:36.118Z,90.00
2022-11-12T10:22:59.995Z,90.00
2022-11-12T10:26:13.297Z,90.00
2022-11-12T10:29:28.511Z,90.00
2022-11-12T10:32:38.651Z,90.00
2022-11-12T10:35:45.294Z,90.00
2022-11-12T10:38:55.709Z,90.00
2022-11-12T10:42:08.469Z,90.00
2022-11-12T10:45:22.173Z,90.10
2022-11-12T10:48:34.479Z,90.00
2022-11-12T10:51:41.948Z,90.00
2022-11-12T10:54:54.859Z,90.00
2022-11-12T10:58:14.598Z,90.00
2022-11-12T11:01:21.434Z,90.00
2022-11-12T11:04:36.142Z,90.00
2022-11-12T11:07:50.934Z,90.00
2022-11-12T11:11:17.827Z,90.00
2022-11-12T11:14:33.837Z,90.00
2022-11-12T11:17:40.366Z,90.10
2022-11-12T11:20:53.963Z,90.30
2022-11-12T11:24:15.686Z,90.10
2022-11-12T11:27:31.731Z,90.00
2022-11-12T11:30:46.574Z,90.10
2022-11-12T11:34:06.091Z,90.10
2022-11-12T11:37:27.056Z,90.10
2022-11-12T11:40:40.866Z,90.10
2022-11-12T11:43:59.525Z,90.10
2022-11-12T11:47:20.048Z,90.10
2022-11-12T11:50:29.672Z,90.10
2022-11-12T11:53:46.266Z,90.10
2022-11-12T11:56:58.221Z,90.10
2022-11-12T12:00:10.383Z,90.10
2022-11-12T12:03:22.678Z,90.10
2022-11-12T12:06:31.542Z,90.10
2022-11-12T12:09:45.866Z,90.10
2022-11-12T12:13:01.642Z,90.10
2022-11-12T12:16:32.080Z,90.10
2022-11-12T12:19:48.033Z,90.10
2022-11-12T12:23:00.406Z,90.10
2022-11-12T12:26:14.337Z,90.10
2022-11-12T12:29:27.149Z,90.10
2022-11-12T12:32:36.815Z,90.10
2022-11-12T12:35:53.206Z,90.10
2022-11-12T12:39:12.821Z,90.10
2022-11-12T12:42:27.098Z,90.40
2022-11-12T12:45:40.844Z,90.10
2022-11-12T12:48:51.321Z,90.10
2022-11-12T12:52:00.057Z,90.20
2022-11-12T12:55:08.424Z,90.10
2022-11-12T12:58:27.604Z,90.20
2022-11-12T13:01:37.592Z,90.10
2022-11-12T13:04:53.065Z,90.10
2022-11-12T13:08:03.561Z,90.10
2022-11-12T13:11:10.975Z,90.10
2022-11-12T13:14:53.358Z,90.10
2022-11-12T13:18:01.715Z,90.10
2022-11-12T13:21:10.582Z,90.10
2022-11-12T13:24:17.551Z,90.10
2022-11-12T13:27:57.939Z,90.10
2022-11-12T13:31:05.761Z,90.10
2022-11-12T13:34:21.684Z,90.10
2022-11-12T13:37:29.182Z,90.10
2022-11-12T13:40:46.778Z,90.10
2022-11-12T13:43:53.872Z,90.10
2022-11-12T13:47:01.731Z,90.10
2022-11-12T13:50:16.230Z,90.10
2022-11-12T13:53:26.621Z,90.10
2022-11-12T13:56:35.570Z,90.10
2022-11-12T13:59:42.269Z,90.20
2022-11-12T14:02:53.372Z,90.20
2022-11-12T14:06:06.337Z,90.10
2022-11-12T14:09:25.279Z,90.10
2022-11-12T14:13:04.872Z,90.10
2022-11-12T14:16:29.619Z,90.10
2022-11-12T14:20:09.552Z,90.10
2022-11-12T14:23:24.598Z,90.10
2022-11-12T14:26:38.307Z,90.10
2022-11-12T14:29:45.093Z,90.10
2022-11-12T14:32:55.567Z,90.10
2022-11-12T14:36:04.550Z,90.00
2022-11-12T14:39:13.823Z,90.00
2022-11-12T14:42:21.159Z,90.00
2022-11-12T14:45:35.055Z,90.00
2022-11-12T14:48:49.945Z,90.00
2022-11-12T14:52:10.970Z,90.00
2022-11-12T14:55:23.621Z,90.00
2022-11-12T14:58:31.334Z,90.00
2022-11-12T15:05:15.656Z,89.90
2022-11-12T15:08:31.768Z,89.90
2022-11-12T15:11:46.054Z,89.90
2022-11-12T15:14:53.413Z,89.90
2022-11-12T15:18:01.923Z,89.90
2022-11-12T15:21:15.194Z,89.90
2022-11-12T15:24:28.121Z,89.90
2022-11-12T15:27:39.904Z,89.80
2022-11-12T15:31:02.535Z,89.90
2022-11-12T15:34:26.836Z,89.90
2022-11-12T15:37:37.939Z,89.80
2022-11-12T15:40:47.440Z,89.80
2022-11-12T15:43:55.654Z,89.80
2022-11-12T15:47:03.660Z,89.80
2022-11-12T15:50:17.130Z,89.80
2022-11-12T15:53:24.237Z,89.90
2022-11-12T15:56:31.458Z,89.90
2022-11-12T15:59:40.089Z,89.90
2022-11-12T16:02:48.889Z,89.80
2022-11-12T16:05:55.707Z,89.90
2022-11-12T16:09:03.005Z,90.00
2022-11-12T16:12:12.175Z,90.00
2022-11-12T16:15:25.463Z,89.90
2022-11-12T16:18:32.726Z,89.90
2022-11-12T16:21:39.871Z,89.90
2022-11-12T16:24:46.747Z,89.90
2022-11-12T16:27:55.973Z,89.80
2022-11-12T16:31:04.635Z,89.80
2022-11-12T16:34:11.811Z,89.80
2022-11-12T16:37:18.672Z,89.90
2022-11-12T16:40:28.032Z,89.90
2022-11-12T16:43:35.119Z,89.90
2022-11-12T16:46:44.005Z,89.90
2022-11-12T16:49:51.189Z,89.90
2022-11-12T16:52:57.893Z,89.90
2022-11-12T16:56:04.884Z,89.90
2022-11-12T16:59:14.614Z,89.80
2022-11-12T17:02:22.981Z,89.90
2022-11-12T17:05:30.068Z,89.90
2022-11-12T17:08:36.534Z,89.90
2022-11-12T17:11:42.892Z,89.90
2022-11-12T17:14:49.917Z,90.00
2022-11-12T17:17:58.078Z,89.90
2022-11-12T17:21:10.055Z,90.00
2022-11-12T17:24:16.408Z,90.00
2022-11-12T17:27:22.859Z,89.90
2022-11-12T17:30:29.407Z,89.90
2022-11-12T17:33:41.543Z,89.90
2022-11-12T17:36:48.316Z,89.90
2022-11-12T17:39:55.121Z,90.00
2022-11-12T17:43:01.738Z,89.90
2022-11-12T17:46:14.636Z,90.00
2022-11-12T17:49:23.143Z,90.00
2022-11-12T17:52:30.048Z,90.00
2022-11-12T17:55:36.942Z,90.00
2022-11-12T17:58:45.406Z,90.00
2022-11-12T18:01:52.263Z,90.00
2022-11-12T18:05:00.704Z,90.00
2022-11-12T18:08:07.690Z,89.90
2022-11-12T18:11:16.092Z,90.00
2022-11-12T18:14:24.712Z,90.00
2022-11-12T18:17:31.558Z,90.00
2022-11-12T18:20:40.741Z,90.00
2022-11-12T18:23:47.777Z,90.00
2022-11-12T18:26:54.666Z,90.00
2022-11-12T18:30:01.747Z,89.90
2022-11-12T18:33:09.106Z,89.90
2022-11-12T18:36:19.046Z,90.00
2022-11-12T18:39:26.675Z,90.00
2022-11-12T18:42:33.746Z,90.00
2022-11-12T18:45:42.656Z,90.00
2022-11-12T18:48:49.855Z,90.00
2022-11-12T18:51:57.950Z,90.00
2022-11-12T18:55:04.831Z,90.00
2022-11-12T18:58:12.587Z,90.00
2022-11-12T19:01:21.619Z,90.00
2022-11-12T19:04:30.337Z,90.00
2022-11-12T19:07:38.616Z,90.00
2022-11-12T19:10:46.197Z,90.00
2022-11-12T19:13:53.778Z,90.00
2022-11-12T19:17:01.422Z,90.00
2022-11-12T19:20:09.842Z,90.00
2022-11-12T19:23:18.020Z,90.00
2022-11-12T19:26:25.498Z,90.00
2022-11-12T19:29:32.417Z,90.00
2022-11-12T19:32:39.401Z,90.00
2022-11-12T19:35:46.386Z,90.00
2022-11-12T19:38:59.298Z,90.00
2022-11-12T19:42:09.478Z,90.00
2022-11-12T19:45:16.275Z,90.00
2022-11-12T19:48:23.140Z,90.00
2022-11-12T19:51:30.941Z,89.90
2022-11-12T19:54:39.749Z,90.00
2022-11-12T19:57:46.559Z,90.00
2022-11-12T20:00:53.553Z,89.90
2022-11-12T20:04:00.657Z,90.00
2022-11-12T20:07:08.049Z,89.90
2022-11-12T20:10:16.248Z,90.00
2022-11-12T20:13:23.865Z,90.00
2022-11-12T20:16:30.851Z,89.90
2022-11-12T20:19:38.154Z,90.00
2022-11-12T20:22:45.163Z,89.90
2022-11-12T20:25:55.270Z,90.00
2022-11-12T20:29:02.202Z,89.90
2022-11-12T20:32:09.486Z,90.00
2022-11-12T20:35:21.825Z,90.00
2022-11-12T20:38:29.395Z,89.90
2022-11-12T20:41:37.796Z,90.00
2022-11-12T20:44:44.791Z,90.00
2022-11-12T20:47:52.037Z,90.00
2022-11-12T20:51:22.547Z,90.00
2022-11-12T20:54:30.513Z,90.00
2022-11-12T20:57:39.232Z,90.00
2022-11-12T21:00:46.673Z,90.00
2022-11-12T21:03:53.336Z,90.00
2022-11-12T21:07:05.016Z,90.00
2022-11-12T21:10:11.849Z,90.00
2022-11-12T21:13:20.587Z,90.00
2022-11-12T21:16:27.575Z,90.00
2022-11-12T21:19:34.689Z,90.00
2022-11-12T21:22:42.382Z,90.00
2022-11-12T21:25:49.861Z,90.00
2022-11-12T21:28:58.553Z,90.00
2022-11-12T21:32:06.041Z,90.00
2022-11-12T21:35:13.164Z,90.00
2022-11-12T21:38:20.317Z,90.00
2022-11-12T21:41:28.965Z,90.00
2022-11-12T21:44:37.563Z,90.00
2022-11-12T21:47:44.729Z,90.00
2022-11-12T21:50:52.123Z,90.00
2022-11-12T21:54:01.585Z,90.00
2022-11-12T21:57:08.157Z,90.00
2022-11-12T22:00:41.054Z,90.00
2022-11-12T22:03:45.754Z,90.00
2022-11-12T22:06:52.868Z,90.00
2022-11-12T22:10:00.158Z,90.00
2022-11-12T22:13:25.813Z,90.00
2022-11-12T22:16:35.548Z,90.00
2022-11-12T22:19:42.712Z,90.00
2022-11-12T22:22:52.210Z,90.00
2022-11-12T22:25:58.897Z,90.00
2022-11-12T22:29:06.400Z,90.00
2022-11-12T22:32:15.138Z,90.00
2022-11-12T22:35:22.445Z,89.90
2022-11-12T22:38:33.470Z,89.90
2022-11-12T22:41:40.601Z,89.90
2022-11-12T22:44:47.688Z,89.90
2022-11-12T22:47:56.318Z,90.00
2022-11-12T22:51:04.057Z,90.00
2022-11-12T22:54:15.685Z,89.90
2022-11-12T22:57:22.445Z,89.90
2022-11-12T23:00:33.139Z,90.00
2022-11-12T23:03:41.435Z,90.00
2022-11-12T23:06:48.536Z,90.00
2022-11-12T23:09:55.314Z,90.00
2022-11-12T23:13:02.127Z,90.00
2022-11-12T23:16:10.366Z,90.00
2022-11-12T23:19:18.574Z,90.00
2022-11-12T23:22:25.609Z,89.90
2022-11-12T23:25:34.725Z,89.90
2022-11-12T23:28:41.625Z,89.90
2022-11-12T23:31:48.271Z,90.00
2022-11-12T23:34:56.817Z,90.00
2022-11-12T23:38:03.942Z,89.90
2022-11-12T23:41:12.271Z,89.90
2022-11-12T23:44:19.324Z,89.90
2022-11-12T23:47:26.439Z,89.90
2022-11-12T23:50:34.865Z,89.90
2022-11-12T23:53:42.511Z,90.00
2022-11-12T23:56:49.428Z,89.90
2022-11-12T23:59:56.973Z,89.90
